createdAt,value
2023-05-12T00:00:26.347Z,8.75
2023-05-12T00:02:53.650Z,11.55
2023-05-12T00:05:20.967Z,10.75
2023-05-12T00:07:48.222Z,10.35
2023-05-12T00:10:15.505Z,9.57
2023-05-12T00:12:42.839Z,9.23
2023-05-12T00:15:10.491Z,10.43
2023-05-12T00:17:37.770Z,8.60
2023-05-12T00:20:05.558Z,10.25
2023-05-12T00:22:32.813Z,9.43
2023-05-12T00:25:00.047Z,10.30
2023-05-12T00:27:27.355Z,9.95
2023-05-12T00:29:54.555Z,8.10
2023-05-12T00:32:22.737Z,10.13
2023-05-12T00:34:50.851Z,6.57
2023-05-12T00:37:18.086Z,8.73
2023-05-12T00:39:45.370Z,8.23
2023-05-12T00:42:12.927Z,8.50
2023-05-12T00:44:40.498Z,9.80
2023-05-12T00:47:07.790Z,7.57
2023-05-12T00:49:35.092Z,8.23
2023-05-12T00:52:03.267Z,7.10
2023-05-12T00:54:31.101Z,10.38
2023-05-12T00:56:58.436Z,8.82
2023-05-12T00:59:25.844Z,12.73
2023-05-12T01:01:53.281Z,12.90
2023-05-12T01:04:20.725Z,8.05
2023-05-12T01:06:56.242Z,11.20
2023-05-12T01:09:23.830Z,10.60
2023-05-12T01:11:51.517Z,8.63
2023-05-12T01:14:19.770Z,10.32
2023-05-12T01:16:53.501Z,11.57
2023-05-12T01:19:40.646Z,9.73
2023-05-12T01:22:10.849Z,11.57
2023-05-12T01:24:43.457Z,11.05
2023-05-12T01:27:11.341Z,8.77
2023-05-12T01:29:39.268Z,10.38
2023-05-12T01:32:06.708Z,10.90
2023-05-12T01:34:35.895Z,10.15
2023-05-12T01:37:03.175Z,10.65
2023-05-12T01:39:30.700Z,9.05
2023-05-12T01:41:58.242Z,8.77
2023-05-12T01:44:25.463Z,7.88
2023-05-12T01:46:52.809Z,8.20
2023-05-12T01:49:20.077Z,10.23
2023-05-12T01:51:48.611Z,8.98
2023-05-12T01:54:19.848Z,8.75
2023-05-12T01:56:47.374Z,8.30
2023-05-12T01:59:14.662Z,9.32
2023-05-12T02:01:42.442Z,8.80
2023-05-12T02:06:38.865Z,9.30
2023-05-12T02:09:06.273Z,8.00
2023-05-12T02:11:33.656Z,8.23
2023-05-12T02:14:00.891Z,8.07
2023-05-12T02:16:28.238Z,10.30
2023-05-12T02:18:55.629Z,12.20
2023-05-12T02:21:22.985Z,10.98
2023-05-12T02:23:53.090Z,12.35
2023-05-12T02:26:21.199Z,10.98
2023-05-12T02:28:48.524Z,9.55
2023-05-12T02:31:15.807Z,9.88
2023-05-12T02:33:43.183Z,10.27
2023-05-12T02:36:10.554Z,10.73
2023-05-12T02:38:37.980Z,10.73
2023-05-12T02:41:05.229Z,10.32
2023-05-12T02:43:32.519Z,9.27
2023-05-12T02:45:59.888Z,10.27
2023-05-12T02:48:27.567Z,10.15
2023-05-12T02:50:54.810Z,11.65
2023-05-12T02:53:22.124Z,9.88
2023-05-12T02:55:49.604Z,9.38
2023-05-12T02:58:16.964Z,9.15
2023-05-12T03:00:44.416Z,9.88
2023-05-12T03:03:12.385Z,8.23
2023-05-12T03:05:40.630Z,8.07
2023-05-12T03:08:08.015Z,8.38
2023-05-12T03:10:35.534Z,8.32
2023-05-12T03:13:02.767Z,7.15
2023-05-12T03:15:30.060Z,9.73
2023-05-12T03:17:57.329Z,8.40
2023-05-12T03:20:24.624Z,7.82
2023-05-12T03:22:51.986Z,6.18
2023-05-12T03:25:19.364Z,7.03
2023-05-12T03:27:46.613Z,5.45
2023-05-12T03:30:14.173Z,8.07
2023-05-12T03:32:41.496Z,5.82
2023-05-12T03:35:10.619Z,6.35
2023-05-12T03:37:38.092Z,7.00
2023-05-12T03:40:07.258Z,8.02
2023-05-12T03:42:34.576Z,6.50
2023-05-12T03:45:01.862Z,7.00
2023-05-12T03:47:29.406Z,9.00
2023-05-12T03:49:57.424Z,8.48
2023-05-12T03:52:24.978Z,9.35
2023-05-12T03:54:52.177Z,10.48
2023-05-12T03:57:21.075Z,11.60
2023-05-12T03:59:48.373Z,12.45
2023-05-12T04:02:15.599Z,14.02
2023-05-12T04:04:43.055Z,15.93
2023-05-12T04:07:10.284Z,16.52
2023-05-12T04:09:37.468Z,16.42
2023-05-12T04:12:05.085Z,17.08
2023-05-12T04:14:42.261Z,15.25
2023-05-12T04:17:10.626Z,16.30
2023-05-12T04:19:38.185Z,17.95
2023-05-12T04:22:05.925Z,21.00
2023-05-12T04:24:33.276Z,30.13
2023-05-12T04:27:00.548Z,36.63
2023-05-12T04:29:27.820Z,32.05
2023-05-12T04:31:56.005Z,34.13
2023-05-12T04:34:23.398Z,34.22
2023-05-12T04:36:51.495Z,37.60
2023-05-12T04:39:19.670Z,36.55
2023-05-12T04:41:46.937Z,41.55
2023-05-12T04:44:14.475Z,43.92
2023-05-12T04:46:43.094Z,42.33
2023-05-12T04:49:10.980Z,46.63
2023-05-12T04:51:42.902Z,46.25
2023-05-12T04:54:11.092Z,52.08
2023-05-12T04:56:38.803Z,50.20
2023-05-12T04:59:07.574Z,48.03
2023-05-12T05:01:34.807Z,50.17
2023-05-12T05:04:02.188Z,57.90
2023-05-12T05:06:29.494Z,54.17
2023-05-12T05:08:57.308Z,54.38
2023-05-12T05:11:24.642Z,59.45
2023-05-12T05:13:52.168Z,50.22
2023-05-12T05:16:19.584Z,55.60
2023-05-12T05:18:48.461Z,54.83
2023-05-12T05:21:15.809Z,53.05
2023-05-12T05:23:43.429Z,61.35
2023-05-12T05:26:12.091Z,56.47
2023-05-12T05:28:40.165Z,58.05
2023-05-12T05:33:35.886Z,54.58
2023-05-12T05:36:04.356Z,55.63
2023-05-12T05:38:32.787Z,62.70
2023-05-12T05:40:59.991Z,55.55
2023-05-12T05:43:29.799Z,57.17
2023-05-12T05:45:58.248Z,54.20
2023-05-12T05:48:25.963Z,48.72
2023-05-12T05:50:54.584Z,54.30
2023-05-12T05:55:51.558Z,51.72
2023-05-12T05:58:18.939Z,55.03
2023-05-12T06:00:47.185Z,51.97
2023-05-12T06:03:14.681Z,50.55
2023-05-12T06:08:13.268Z,50.72
2023-05-12T06:10:43.695Z,53.22
2023-05-12T06:13:10.979Z,51.97
2023-05-12T06:15:38.632Z,49.85
2023-05-12T06:18:05.967Z,55.20
2023-05-12T06:20:33.611Z,53.28
2023-05-12T06:23:02.092Z,58.40
2023-05-12T06:25:29.323Z,54.05
2023-05-12T06:27:56.579Z,53.95
2023-05-12T06:30:23.925Z,56.38
2023-05-12T06:32:55.056Z,49.35
2023-05-12T06:35:22.729Z,55.05
2023-05-12T06:37:51.036Z,63.80
2023-05-12T06:40:18.348Z,55.20
2023-05-12T06:42:45.793Z,55.92
2023-05-12T06:45:19.742Z,53.88
2023-05-12T06:47:47.362Z,52.88
2023-05-12T06:50:16.937Z,51.15
2023-05-12T06:52:44.518Z,51.88
2023-05-12T06:55:11.857Z,51.55
2023-05-12T06:57:39.113Z,49.15
2023-05-12T07:00:07.593Z,56.45
2023-05-12T07:02:34.988Z,52.53
2023-05-12T07:05:02.297Z,50.78
2023-05-12T07:07:29.582Z,50.42
2023-05-12T07:09:57.193Z,50.80
2023-05-12T07:12:25.600Z,49.92
2023-05-12T07:14:52.930Z,54.65
2023-05-12T07:17:21.307Z,51.90
2023-05-12T07:19:48.555Z,49.47
2023-05-12T07:22:15.957Z,52.08
2023-05-12T07:24:43.509Z,54.30
2023-05-12T07:27:10.956Z,49.05
2023-05-12T07:29:38.663Z,51.60
2023-05-12T07:32:06.202Z,49.53
2023-05-12T07:34:34.033Z,51.00
2023-05-12T07:37:02.491Z,48.35
2023-05-12T07:39:32.239Z,53.38
2023-05-12T07:41:59.749Z,52.88
2023-05-12T07:44:28.171Z,49.63
2023-05-12T07:46:55.685Z,46.97
2023-05-12T07:49:23.363Z,41.75
2023-05-12T07:51:50.911Z,42.53
2023-05-12T07:54:18.330Z,37.90
2023-05-12T07:56:46.108Z,49.15
2023-05-12T07:59:14.390Z,46.28
2023-05-12T08:01:41.834Z,46.70
2023-05-12T08:04:09.284Z,46.72
2023-05-12T08:06:36.683Z,42.38
2023-05-12T08:09:04.011Z,43.00
2023-05-12T08:11:31.731Z,41.90
2023-05-12T08:13:59.090Z,44.65
2023-05-12T08:16:26.443Z,42.00
2023-05-12T08:18:53.778Z,38.15
2023-05-12T08:21:21.244Z,39.22
2023-05-12T08:23:48.543Z,39.35
2023-05-12T08:26:15.845Z,38.20
2023-05-12T08:28:43.140Z,38.03
2023-05-12T08:31:12.981Z,35.53
2023-05-12T08:33:40.261Z,38.60
2023-05-12T08:36:07.568Z,39.88
2023-05-12T08:38:34.931Z,36.95
2023-05-12T08:41:05.131Z,35.20
2023-05-12T08:43:39.455Z,36.55
2023-05-12T08:46:07.008Z,35.15
2023-05-12T08:48:35.675Z,37.10
2023-05-12T08:51:03.669Z,35.28
2023-05-12T08:53:31.709Z,34.65
2023-05-12T08:58:49.079Z,38.60
2023-05-12T09:01:18.228Z,36.78
2023-05-12T09:03:45.669Z,32.58
2023-05-12T09:06:13.975Z,36.05
2023-05-12T09:08:41.468Z,34.40
2023-05-12T09:11:12.084Z,33.17
2023-05-12T09:13:48.157Z,33.22
2023-05-12T09:16:15.738Z,37.70
2023-05-12T09:18:52.249Z,34.58
2023-05-12T09:21:19.805Z,35.47
2023-05-12T09:23:54.000Z,33.50
2023-05-12T09:26:22.741Z,35.67
2023-05-12T09:28:50.913Z,35.80
2023-05-12T09:31:22.764Z,29.70
2023-05-12T09:33:51.013Z,32.00
2023-05-12T09:36:19.418Z,31.03
2023-05-12T09:38:46.771Z,32.05
2023-05-12T09:41:14.088Z,28.83
2023-05-12T09:43:53.129Z,30.10
2023-05-12T09:48:48.497Z,29.65
2023-05-12T09:51:18.936Z,30.07
2023-05-12T09:53:47.062Z,30.00
2023-05-12T09:56:14.847Z,33.80
2023-05-12T09:58:49.055Z,31.23
2023-05-12T10:01:23.288Z,29.15
2023-05-12T10:03:55.776Z,31.30
2023-05-12T10:06:30.329Z,28.45
2023-05-12T10:09:05.104Z,29.63
2023-05-12T10:11:33.544Z,27.65
2023-05-12T10:14:01.371Z,28.17
2023-05-12T10:16:28.955Z,32.25
2023-05-12T10:18:56.729Z,25.95
2023-05-12T10:21:26.058Z,28.73
2023-05-12T10:23:54.586Z,25.27
2023-05-12T10:26:23.313Z,25.80
2023-05-12T10:28:51.212Z,25.73
2023-05-12T10:31:19.081Z,31.17
2023-05-12T10:33:56.534Z,27.73
2023-05-12T10:36:24.604Z,27.80
2023-05-12T10:38:51.876Z,29.43
2023-05-12T10:41:29.672Z,26.80
2023-05-12T10:43:57.111Z,29.92
2023-05-12T10:46:26.559Z,30.20
2023-05-12T10:48:59.800Z,30.23
2023-05-12T10:51:28.732Z,28.85
2023-05-12T10:56:25.546Z,29.88
2023-05-12T10:59:13.476Z,25.27
2023-05-12T11:01:42.807Z,23.55
2023-05-12T11:04:11.587Z,29.17
2023-05-12T11:06:40.826Z,25.45
2023-05-12T11:09:09.139Z,24.15
2023-05-12T11:11:36.642Z,29.27
2023-05-12T11:14:03.900Z,22.58
2023-05-12T11:16:31.521Z,25.67
2023-05-12T11:19:03.265Z,22.90
2023-05-12T11:21:31.957Z,24.20
2023-05-12T11:24:00.185Z,24.35
2023-05-12T11:26:27.907Z,25.38
2023-05-12T11:28:55.541Z,25.10
2023-05-12T11:31:23.645Z,22.00
2023-05-12T11:34:01.312Z,25.05
2023-05-12T11:36:39.476Z,24.05
2023-05-12T11:39:07.152Z,20.17
2023-05-12T11:41:34.487Z,23.08
2023-05-12T11:44:12.997Z,22.55
2023-05-12T11:46:41.135Z,20.45
2023-05-12T11:49:12.028Z,18.85
2023-05-12T11:51:42.952Z,20.00
2023-05-12T11:54:10.254Z,19.40
2023-05-12T11:56:37.464Z,24.80
2023-05-12T11:59:04.876Z,24.65
2023-05-12T12:01:34.411Z,25.40
2023-05-12T12:04:01.819Z,23.88
2023-05-12T12:06:29.212Z,25.08
2023-05-12T12:08:57.645Z,24.50
2023-05-12T12:11:28.364Z,22.60
2023-05-12T12:13:56.971Z,21.38
2023-05-12T12:16:25.812Z,23.30
2023-05-12T12:18:53.434Z,22.98
2023-05-12T12:21:21.686Z,25.88
2023-05-12T12:23:51.652Z,23.60
2023-05-12T12:26:21.502Z,22.15
2023-05-12T12:28:49.022Z,24.30
2023-05-12T12:31:16.829Z,23.52
2023-05-12T12:33:44.152Z,26.98
2023-05-12T12:36:11.472Z,24.08
2023-05-12T12:38:38.774Z,24.90
2023-05-12T12:41:07.146Z,24.40
2023-05-12T12:43:34.490Z,47.40
2023-05-12T12:46:01.740Z,25.73
2023-05-12T12:48:29.010Z,21.17
2023-05-12T12:50:56.601Z,22.40
2023-05-12T12:53:23.949Z,22.52
2023-05-12T12:55:51.229Z,21.38
2023-05-12T12:58:18.540Z,22.13
2023-05-12T13:00:45.812Z,21.10
2023-05-12T13:03:13.370Z,21.58
2023-05-12T13:05:40.839Z,20.30
2023-05-12T13:08:08.128Z,19.77
2023-05-12T13:10:35.596Z,22.70
2023-05-12T13:13:02.951Z,19.05
2023-05-12T13:15:32.280Z,19.48
2023-05-12T13:18:00.230Z,19.05
2023-05-12T13:20:27.976Z,17.87
2023-05-12T13:22:55.289Z,19.02
2023-05-12T13:25:22.864Z,20.42
2023-05-12T13:27:50.224Z,18.40
2023-05-12T13:30:17.534Z,18.45
2023-05-12T13:32:45.201Z,20.85
2023-05-12T13:35:12.666Z,17.95
2023-05-12T13:37:40.020Z,18.33
2023-05-12T13:40:07.904Z,17.35
2023-05-12T13:42:35.302Z,19.37
2023-05-12T13:45:05.204Z,18.10
2023-05-12T13:47:33.256Z,19.08
2023-05-12T13:50:01.391Z,19.27
2023-05-12T13:52:29.892Z,17.17
2023-05-12T13:54:58.914Z,16.75
2023-05-12T13:59:57.632Z,17.52
2023-05-12T14:02:25.231Z,15.10
2023-05-12T14:04:54.465Z,13.60
2023-05-12T14:07:21.766Z,13.68
2023-05-12T14:09:49.053Z,13.40
2023-05-12T14:12:16.318Z,15.73
2023-05-12T14:14:49.473Z,15.02
2023-05-12T14:17:17.223Z,14.13
2023-05-12T14:19:44.497Z,15.02
2023-05-12T14:22:22.374Z,15.52
2023-05-12T14:24:53.485Z,13.95
2023-05-12T14:27:20.746Z,13.45
2023-05-12T14:29:48.293Z,11.15
2023-05-12T14:32:16.148Z,11.23
2023-05-12T14:34:43.493Z,11.52
2023-05-12T14:37:10.796Z,11.20
2023-05-12T14:39:38.018Z,12.10
2023-05-12T14:42:05.342Z,11.60
2023-05-12T14:44:32.661Z,11.57
2023-05-12T14:46:59.913Z,11.75
2023-05-12T14:49:27.196Z,11.43
2023-05-12T14:51:55.561Z,10.98
2023-05-12T14:54:25.810Z,10.48
2023-05-12T14:56:53.504Z,10.25
2023-05-12T14:59:20.818Z,11.63
2023-05-12T15:01:48.087Z,14.65
2023-05-12T15:04:15.344Z,10.27
2023-05-12T15:06:42.633Z,13.13
2023-05-12T15:09:09.885Z,12.77
2023-05-12T15:11:37.680Z,12.25
2023-05-12T15:14:05.039Z,9.85
2023-05-12T15:16:33.182Z,10.18
2023-05-12T15:19:00.563Z,12.27
2023-05-12T15:21:27.883Z,10.63
2023-05-12T15:23:55.109Z,11.00
2023-05-12T15:26:32.738Z,11.20
2023-05-12T15:29:03.770Z,12.13
2023-05-12T15:31:31.367Z,13.57
2023-05-12T15:33:58.714Z,13.10
2023-05-12T15:36:26.059Z,11.48
2023-05-12T15:38:53.582Z,10.70
2023-05-12T15:41:20.867Z,11.18
2023-05-12T15:43:48.147Z,11.45
2023-05-12T15:46:15.582Z,12.55
2023-05-12T15:48:42.907Z,12.38
2023-05-12T15:51:10.276Z,11.45
2023-05-12T15:53:37.527Z,12.27
2023-05-12T15:56:05.481Z,11.85
2023-05-12T15:58:32.867Z,11.23
2023-05-12T16:01:00.398Z,11.55
2023-05-12T16:03:27.857Z,11.90
2023-05-12T16:05:55.839Z,12.10
2023-05-12T16:08:24.067Z,11.18
2023-05-12T16:10:51.391Z,9.75
2023-05-12T16:13:18.646Z,10.10
2023-05-12T16:15:46.015Z,10.20
2023-05-12T16:18:13.305Z,12.05
2023-05-12T16:20:41.754Z,10.07
2023-05-12T16:23:09.161Z,9.30
2023-05-12T16:25:37.280Z,21.13
2023-05-12T16:28:05.338Z,14.87
2023-05-12T16:30:32.538Z,18.40
2023-05-12T16:32:59.871Z,11.05
2023-05-12T16:35:27.212Z,10.27
2023-05-12T16:37:54.482Z,8.77
2023-05-12T16:40:21.869Z,8.65
2023-05-12T16:42:49.140Z,10.77
2023-05-12T16:45:16.373Z,10.73
2023-05-12T16:47:43.617Z,16.48
2023-05-12T16:50:11.617Z,10.35
2023-05-12T16:52:39.037Z,10.80
2023-05-12T16:55:06.805Z,8.80
2023-05-12T16:57:34.606Z,8.97
2023-05-12T17:00:06.153Z,8.60
2023-05-12T17:02:36.645Z,8.40
2023-05-12T17:05:04.009Z,7.63
2023-05-12T17:07:31.281Z,6.78
2023-05-12T17:09:58.542Z,8.00
2023-05-12T17:12:26.246Z,10.50
2023-05-12T17:15:06.290Z,7.90
2023-05-12T17:17:35.369Z,8.95
2023-05-12T17:20:02.844Z,8.82
2023-05-12T17:22:32.029Z,10.30
2023-05-12T17:24:59.339Z,8.52
2023-05-12T17:27:26.574Z,9.40
2023-05-12T17:29:53.894Z,8.90
2023-05-12T17:32:21.445Z,9.50
2023-05-12T17:34:51.060Z,8.98
2023-05-12T17:37:18.668Z,11.50
2023-05-12T17:39:46.219Z,11.18
2023-05-12T17:42:13.607Z,11.63
2023-05-12T17:44:41.027Z,12.73
2023-05-12T17:47:08.346Z,13.63
2023-05-12T17:49:36.440Z,17.60
2023-05-12T17:52:03.761Z,22.55
2023-05-12T17:54:31.504Z,26.92
2023-05-12T17:56:59.452Z,34.90
2023-05-12T17:59:26.798Z,31.40
2023-05-12T18:01:54.127Z,33.65
2023-05-12T18:04:23.069Z,29.65
2023-05-12T18:06:50.379Z,29.58
2023-05-12T18:09:18.091Z,29.90
2023-05-12T18:11:45.521Z,26.77
2023-05-12T18:14:13.308Z,28.67
2023-05-12T18:16:40.807Z,31.92
2023-05-12T18:19:08.708Z,24.60
2023-05-12T18:21:36.323Z,23.98
2023-05-12T18:24:03.690Z,24.27
2023-05-12T18:26:31.154Z,28.60
2023-05-12T18:28:59.052Z,20.75
2023-05-12T18:31:29.797Z,22.75
2023-05-12T18:33:57.155Z,22.05
2023-05-12T18:36:24.348Z,22.55
2023-05-12T18:38:51.733Z,21.60
2023-05-12T18:41:19.041Z,20.55
2023-05-12T18:43:46.689Z,20.92
2023-05-12T18:46:14.037Z,19.52
2023-05-12T18:48:41.394Z,20.00
2023-05-12T18:51:09.473Z,18.80
2023-05-12T18:53:37.164Z,18.98
2023-05-12T18:56:04.535Z,22.00
2023-05-12T18:58:31.799Z,19.50
2023-05-12T19:00:59.071Z,22.48
2023-05-12T19:03:26.503Z,19.75
2023-05-12T19:05:53.876Z,18.77
2023-05-12T19:08:21.206Z,19.83
2023-05-12T19:10:48.773Z,19.27
2023-05-12T19:13:16.054Z,18.80
2023-05-12T19:15:43.363Z,18.35
2023-05-12T19:18:10.637Z,20.67
2023-05-12T19:20:38.216Z,20.13
2023-05-12T19:23:05.636Z,20.02
2023-05-12T19:25:32.898Z,18.92
2023-05-12T19:28:00.792Z,18.42
2023-05-12T19:30:29.449Z,17.75
2023-05-12T19:32:56.821Z,21.02
2023-05-12T19:35:24.612Z,18.15
2023-05-12T19:37:51.981Z,17.02
2023-05-12T19:40:19.217Z,17.60
2023-05-12T19:42:46.845Z,17.35
2023-05-12T19:45:15.544Z,16.85
2023-05-12T19:47:43.010Z,17.92
2023-05-12T19:50:10.650Z,19.20
2023-05-12T19:52:39.227Z,18.83
2023-05-12T19:55:08.495Z,19.58
2023-05-12T19:57:36.930Z,22.48
2023-05-12T20:00:04.555Z,17.67
2023-05-12T20:02:39.763Z,16.90
2023-05-12T20:05:07.454Z,18.30
2023-05-12T20:07:34.769Z,20.83
2023-05-12T20:10:02.152Z,16.30
2023-05-12T20:12:29.436Z,21.23
2023-05-12T20:14:56.950Z,17.73
2023-05-12T20:17:24.308Z,18.48
2023-05-12T20:19:51.553Z,20.02
2023-05-12T20:22:18.982Z,19.40
2023-05-12T20:24:46.311Z,18.15
2023-05-12T20:27:13.588Z,22.83
2023-05-12T20:29:41.080Z,19.48
2023-05-12T20:32:08.475Z,19.58
2023-05-12T20:34:35.779Z,20.20
2023-05-12T20:37:03.385Z,18.88
2023-05-12T20:39:30.590Z,20.42
2023-05-12T20:41:58.459Z,22.92
2023-05-12T20:44:27.084Z,22.60
2023-05-12T20:46:54.471Z,24.42
2023-05-12T20:49:22.153Z,24.30
2023-05-12T20:51:49.407Z,20.80
2023-05-12T20:54:16.650Z,19.50
2023-05-12T20:56:43.991Z,21.70
2023-05-12T20:59:11.277Z,25.30
2023-05-12T21:01:39.041Z,26.27
2023-05-12T21:04:06.491Z,27.23
2023-05-12T21:06:35.899Z,27.42
2023-05-12T21:09:04.885Z,25.88
2023-05-12T21:11:32.121Z,27.15
2023-05-12T21:13:59.420Z,23.05
2023-05-12T21:16:26.665Z,27.77
2023-05-12T21:18:54.131Z,29.88
2023-05-12T21:21:21.449Z,30.13
2023-05-12T21:23:48.714Z,30.38
2023-05-12T21:26:16.051Z,25.98
2023-05-12T21:28:43.279Z,30.48
2023-05-12T21:31:10.551Z,32.03
2023-05-12T21:33:37.944Z,31.23
2023-05-12T21:36:05.553Z,32.00
2023-05-12T21:38:33.046Z,29.92
2023-05-12T21:41:00.429Z,32.58
2023-05-12T21:43:27.707Z,29.63
2023-05-12T21:45:55.006Z,30.10
2023-05-12T21:48:22.313Z,30.05
2023-05-12T21:50:59.576Z,34.97
2023-05-12T21:53:26.866Z,30.88
2023-05-12T21:55:55.864Z,30.70
2023-05-12T21:58:24.230Z,35.28
2023-05-12T22:00:54.051Z,32.42
2023-05-12T22:03:21.916Z,32.33
2023-05-12T22:05:49.928Z,31.70
2023-05-12T22:08:17.407Z,29.67
2023-05-12T22:10:44.678Z,32.25
2023-05-12T22:13:11.931Z,28.90
2023-05-12T22:15:39.293Z,30.23
2023-05-12T22:18:06.637Z,27.77
2023-05-12T22:20:34.039Z,27.55
2023-05-12T22:23:01.319Z,26.98
2023-05-12T22:25:28.657Z,28.70
2023-05-12T22:27:55.996Z,33.33
2023-05-12T22:30:23.673Z,29.20
2023-05-12T22:32:51.487Z,26.40
2023-05-12T22:35:18.751Z,27.27
2023-05-12T22:37:45.989Z,25.73
2023-05-12T22:40:13.365Z,24.70
2023-05-12T22:42:40.714Z,26.05
2023-05-12T22:45:08.268Z,23.55
2023-05-12T22:47:35.609Z,24.60
2023-05-12T22:50:02.975Z,22.90
2023-05-12T22:52:30.265Z,20.27
2023-05-12T22:54:57.556Z,21.30
2023-05-12T22:57:27.397Z,19.98
2023-05-12T22:59:54.611Z,21.58
2023-05-12T23:02:22.015Z,18.85
2023-05-12T23:04:49.199Z,21.02
2023-05-12T23:07:17.317Z,20.75
2023-05-12T23:09:46.516Z,20.63
2023-05-12T23:12:17.668Z,18.60
2023-05-12T23:14:47.616Z,17.30
2023-05-12T23:17:17.483Z,15.70
2023-05-12T23:19:49.262Z,16.13
2023-05-12T23:22:19.088Z,14.35
2023-05-12T23:24:51.066Z,12.85
2023-05-12T23:27:28.813Z,12.77
2023-05-12T23:30:07.458Z,13.10
2023-05-12T23:32:56.310Z,14.55
2023-05-12T23:35:31.858Z,14.07
2023-05-12T23:38:06.689Z,15.20
2023-05-12T23:40:40.362Z,11.15
2023-05-12T23:46:03.046Z,11.82
2023-05-12T23:48:38.324Z,10.52
2023-05-12T23:51:11.067Z,8.77
2023-05-12T23:53:39.124Z,11.48
2023-05-12T23:56:06.659Z,8.48
2023-05-12T23:58:35.501Z,8.43
